sensor_id;sensor_type;location;lat;lon;timestamp;pressure;altitude;pressure_sealevel;temperature;humidity
71476;BME280;59286;59.274;17.974;2024-03-08T00:02:16;102354.81;;;-1.94;100.00
71476;BME280;59286;59.274;17.974;2024-03-08T00:04:44;102327.78;;;-2.13;100.00
71476;BME280;59286;59.274;17.974;2024-03-08T00:07:10;102320.56;;;-2.18;100.00
71476;BME280;59286;59.274;17.974;2024-03-08T00:09:35;102316.25;;;-2.17;100.00
71476;BME280;59286;59.274;17.974;2024-03-08T00:12:01;102340.00;;;-2.15;100.00
71476;BME280;59286;59.274;17.974;2024-03-08T00:14:27;102345.94;;;-2.15;100.00
71476;BME280;59286;59.274;17.974;2024-03-08T00:16:52;102347.03;;;-2.09;100.00
71476;BME280;59286;59.274;17.974;2024-03-08T00:19:19;102290.41;;;-2.46;100.00
71476;BME280;59286;59.274;17.974;2024-03-08T00:21:44;102323.19;;;-2.26;100.00
71476;BME280;59286;59.274;17.974;2024-03-08T00:24:10;102309.59;;;-2.34;100.00
71476;BME280;59286;59.274;17.974;2024-03-08T00:26:37;102306.25;;;-2.43;100.00
71476;BME280;59286;59.274;17.974;2024-03-08T00:29:02;102333.47;;;-2.26;100.00
71476;BME280;59286;59.274;17.974;2024-03-08T00:31:28;102281.34;;;-2.65;100.00
71476;BME280;59286;59.274;17.974;2024-03-08T00:33:56;102276.19;;;-2.65;100.00
71476;BME280;59286;59.274;17.974;2024-03-08T00:36:22;102331.09;;;-2.35;100.00
71476;BME280;59286;59.274;17.974;2024-03-08T00:38:47;102295.41;;;-2.61;100.00
71476;BME280;59286;59.274;17.974;2024-03-08T00:41:13;102292.38;;;-2.64;100.00
71476;BME280;59286;59.274;17.974;2024-03-08T00:43:38;102342.78;;;-2.33;100.00
71476;BME280;59286;59.274;17.974;2024-03-08T00:46:04;102316.25;;;-2.56;100.00
71476;BME280;59286;59.274;17.974;2024-03-08T00:48:29;102322.66;;;-2.52;100.00
71476;BME280;59286;59.274;17.974;2024-03-08T00:50:56;102331.13;;;-2.43;100.00
71476;BME280;59286;59.274;17.974;2024-03-08T00:53:21;102294.81;;;-2.71;100.00
71476;BME280;59286;59.274;17.974;2024-03-08T00:55:47;102299.44;;;-2.66;100.00
71476;BME280;59286;59.274;17.974;2024-03-08T00:58:13;102266.97;;;-2.90;100.00
71476;BME280;59286;59.274;17.974;2024-03-08T01:00:38;102279.31;;;-2.85;100.00
71476;BME280;59286;59.274;17.974;2024-03-08T01:03:07;102338.53;;;-2.48;100.00
71476;BME280;59286;59.274;17.974;2024-03-08T01:05:33;102287.13;;;-2.79;100.00
71476;BME280;59286;59.274;17.974;2024-03-08T01:08:00;102279.16;;;-2.84;100.00
71476;BME280;59286;59.274;17.974;2024-03-08T01:10:25;102259.28;;;-2.98;100.00
71476;BME280;59286;59.274;17.974;2024-03-08T01:12:52;102256.59;;;-2.97;100.00
71476;BME280;59286;59.274;17.974;2024-03-08T01:15:19;102285.56;;;-2.88;100.00
71476;BME280;59286;59.274;17.974;2024-03-08T01:17:45;102253.56;;;-3.08;100.00
71476;BME280;59286;59.274;17.974;2024-03-08T01:20:10;102330.38;;;-2.60;100.00
71476;BME280;59286;59.274;17.974;2024-03-08T01:22:38;102300.97;;;-2.88;100.00
71476;BME280;59286;59.274;17.974;2024-03-08T01:25:04;102307.00;;;-2.73;100.00
71476;BME280;59286;59.274;17.974;2024-03-08T01:27:30;102312.94;;;-2.72;100.00
71476;BME280;59286;59.274;17.974;2024-03-08T01:29:56;102254.19;;;-3.06;100.00
71476;BME280;59286;59.274;17.974;2024-03-08T01:32:21;102288.78;;;-2.86;100.00
71476;BME280;59286;59.274;17.974;2024-03-08T01:34:49;102320.13;;;-2.68;100.00
71476;BME280;59286;59.274;17.974;2024-03-08T01:37:14;102286.50;;;-2.89;100.00
71476;BME280;59286;59.274;17.974;2024-03-08T01:39:39;102284.13;;;-2.90;100.00
71476;BME280;59286;59.274;17.974;2024-03-08T01:42:05;102272.28;;;-3.00;100.00
71476;BME280;59286;59.274;17.974;2024-03-08T01:44:30;102281.09;;;-2.94;100.00
71476;BME280;59286;59.274;17.974;2024-03-08T01:46:56;102247.81;;;-3.18;100.00
71476;BME280;59286;59.274;17.974;2024-03-08T01:49:22;102254.84;;;-3.04;100.00
71476;BME280;59286;59.274;17.974;2024-03-08T01:51:49;102264.13;;;-3.03;100.00
71476;BME280;59286;59.274;17.974;2024-03-08T01:54:16;102258.63;;;-2.92;100.00
71476;BME280;59286;59.274;17.974;2024-03-08T01:56:43;102276.41;;;-2.74;100.00
71476;BME280;59286;59.274;17.974;2024-03-08T01:59:08;102268.22;;;-2.78;100.00
71476;BME280;59286;59.274;17.974;2024-03-08T02:01:34;102296.03;;;-2.51;100.00
71476;BME280;59286;59.274;17.974;2024-03-08T02:04:00;102274.59;;;-2.66;100.00
71476;BME280;59286;59.274;17.974;2024-03-08T02:06:25;102293.47;;;-2.51;100.00
71476;BME280;59286;59.274;17.974;2024-03-08T02:08:51;102306.25;;;-2.43;100.00
71476;BME280;59286;59.274;17.974;2024-03-08T02:11:17;102289.78;;;-2.56;100.00
71476;BME280;59286;59.274;17.974;2024-03-08T02:13:44;102262.47;;;-2.80;100.00
71476;BME280;59286;59.274;17.974;2024-03-08T02:16:09;102273.97;;;-2.76;100.00
71476;BME280;59286;59.274;17.974;2024-03-08T02:18:35;102260.56;;;-2.94;100.00
71476;BME280;59286;59.274;17.974;2024-03-08T02:21:02;102300.72;;;-2.62;100.00
71476;BME280;59286;59.274;17.974;2024-03-08T02:23:28;102274.47;;;-2.72;100.00
71476;BME280;59286;59.274;17.974;2024-03-08T02:25:55;102294.31;;;-2.66;100.00
71476;BME280;59286;59.274;17.974;2024-03-08T02:28:22;102283.13;;;-2.73;100.00
71476;BME280;59286;59.274;17.974;2024-03-08T02:30:47;102241.03;;;-2.95;100.00
71476;BME280;59286;59.274;17.974;2024-03-08T02:33:16;102283.63;;;-2.78;100.00
71476;BME280;59286;59.274;17.974;2024-03-08T02:35:43;102277.50;;;-2.77;100.00
71476;BME280;59286;59.274;17.974;2024-03-08T02:38:15;102235.25;;;-2.97;100.00
71476;BME280;59286;59.274;17.974;2024-03-08T02:40:45;102281.66;;;-2.68;100.00
71476;BME280;59286;59.274;17.974;2024-03-08T02:43:11;102286.78;;;-2.68;100.00
71476;BME280;59286;59.274;17.974;2024-03-08T02:45:37;102281.34;;;-2.65;100.00
71476;BME280;59286;59.274;17.974;2024-03-08T02:48:04;102273.31;;;-2.70;100.00
71476;BME280;59286;59.274;17.974;2024-03-08T02:50:29;102220.88;;;-3.06;100.00
71476;BME280;59286;59.274;17.974;2024-03-08T02:52:54;102247.38;;;-2.83;100.00
71476;BME280;59286;59.274;17.974;2024-03-08T02:55:20;102210.16;;;-3.10;100.00
71476;BME280;59286;59.274;17.974;2024-03-08T02:57:46;102250.75;;;-2.74;100.00
71476;BME280;59286;59.274;17.974;2024-03-08T03:00:14;102265.13;;;-2.65;100.00
71476;BME280;59286;59.274;17.974;2024-03-08T03:02:40;102249.44;;;-2.70;100.00
71476;BME280;59286;59.274;17.974;2024-03-08T03:05:07;102269.09;;;-2.55;100.00
71476;BME280;59286;59.274;17.974;2024-03-08T03:07:35;102251.94;;;-2.54;100.00
71476;BME280;59286;59.274;17.974;2024-03-08T03:10:00;102283.09;;;-2.35;100.00
71476;BME280;59286;59.274;17.974;2024-03-08T03:12:30;102254.78;;;-2.49;100.00
71476;BME280;59286;59.274;17.974;2024-03-08T03:14:56;102275.88;;;-2.31;100.00
71476;BME280;59286;59.274;17.974;2024-03-08T03:17:25;102275.41;;;-2.35;100.00
71476;BME280;59286;59.274;17.974;2024-03-08T03:19:51;102250.63;;;-2.50;100.00
71476;BME280;59286;59.274;17.974;2024-03-08T03:22:20;102251.38;;;-2.42;100.00
71476;BME280;59286;59.274;17.974;2024-03-08T03:24:46;102267.84;;;-2.28;100.00
71476;BME280;59286;59.274;17.974;2024-03-08T03:27:15;102254.22;;;-2.37;100.00
71476;BME280;59286;59.274;17.974;2024-03-08T03:29:43;102215.56;;;-2.66;100.00
71476;BME280;59286;59.274;17.974;2024-03-08T03:32:12;102275.19;;;-2.25;100.00
71476;BME280;59286;59.274;17.974;2024-03-08T03:34:38;102259.69;;;-2.32;100.00
71476;BME280;59286;59.274;17.974;2024-03-08T03:37:04;102217.19;;;-2.65;100.00
71476;BME280;59286;59.274;17.974;2024-03-08T03:39:30;102276.34;;;-2.28;100.00
71476;BME280;59286;59.274;17.974;2024-03-08T03:42:02;102246.59;;;-2.45;100.00
71476;BME280;59286;59.274;17.974;2024-03-08T03:44:28;102268.06;;;-2.38;100.00
71476;BME280;59286;59.274;17.974;2024-03-08T03:46:54;102251.41;;;-2.50;100.00
71476;BME280;59286;59.274;17.974;2024-03-08T03:49:19;102235.59;;;-2.61;100.00
71476;BME280;59286;59.274;17.974;2024-03-08T03:51:45;102234.00;;;-2.62;100.00
71476;BME280;59286;59.274;17.974;2024-03-08T03:54:11;102237.34;;;-2.54;100.00
71476;BME280;59286;59.274;17.974;2024-03-08T03:56:36;102263.38;;;-2.34;100.00
71476;BME280;59286;59.274;17.974;2024-03-08T03:59:01;102257.19;;;-2.48;100.00
71476;BME280;59286;59.274;17.974;2024-03-08T04:01:27;102240.53;;;-2.52;100.00
71476;BME280;59286;59.274;17.974;2024-03-08T04:03:52;102235.88;;;-2.48;100.00
71476;BME280;59286;59.274;17.974;2024-03-08T04:06:18;102254.94;;;-2.43;100.00
71476;BME280;59286;59.274;17.974;2024-03-08T04:08:43;102242.13;;;-2.51;100.00
71476;BME280;59286;59.274;17.974;2024-03-08T04:11:08;102216.19;;;-2.64;100.00
71476;BME280;59286;59.274;17.974;2024-03-08T04:13:34;102262.72;;;-2.28;100.00
71476;BME280;59286;59.274;17.974;2024-03-08T04:15:59;102253.91;;;-2.34;100.00
71476;BME280;59286;59.274;17.974;2024-03-08T04:18:25;102244.13;;;-2.38;100.00
71476;BME280;59286;59.274;17.974;2024-03-08T04:20:50;102259.03;;;-2.34;100.00
71476;BME280;59286;59.274;17.974;2024-03-08T04:23:16;102210.25;;;-2.64;100.00
71476;BME280;59286;59.274;17.974;2024-03-08T04:25:43;102178.00;;;-2.89;100.00
71476;BME280;59286;59.274;17.974;2024-03-08T04:28:08;102214.28;;;-2.62;100.00
71476;BME280;59286;59.274;17.974;2024-03-08T04:30:37;102241.47;;;-2.45;100.00
71476;BME280;59286;59.274;17.974;2024-03-08T04:33:03;102211.06;;;-2.64;100.00
71476;BME280;59286;59.274;17.974;2024-03-08T04:35:29;102235.06;;;-2.49;100.00
71476;BME280;59286;59.274;17.974;2024-03-08T04:37:54;102210.91;;;-2.62;100.00
71476;BME280;59286;59.274;17.974;2024-03-08T04:40:19;102236.97;;;-2.43;100.00
71476;BME280;59286;59.274;17.974;2024-03-08T04:42:45;102240.31;;;-2.42;100.00
71476;BME280;59286;59.274;17.974;2024-03-08T04:45:10;102242.84;;;-2.34;100.00
71476;BME280;59286;59.274;17.974;2024-03-08T04:47:36;102198.25;;;-2.64;100.00
71476;BME280;59286;59.274;17.974;2024-03-08T04:50:02;102234.03;;;-2.40;100.00
71476;BME280;59286;59.274;17.974;2024-03-08T04:52:27;102197.94;;;-2.69;100.00
71476;BME280;59286;59.274;17.974;2024-03-08T04:54:53;102226.72;;;-2.51;100.00
71476;BME280;59286;59.274;17.974;2024-03-08T04:57:18;102188.34;;;-2.75;100.00
71476;BME280;59286;59.274;17.974;2024-03-08T04:59:44;102212.66;;;-2.63;100.00
71476;BME280;59286;59.274;17.974;2024-03-08T05:02:09;102211.41;;;-2.67;100.00
71476;BME280;59286;59.274;17.974;2024-03-08T05:04:35;102219.06;;;-2.59;100.00
71476;BME280;59286;59.274;17.974;2024-03-08T05:07:01;102194.41;;;-2.68;100.00
71476;BME280;59286;59.274;17.974;2024-03-08T05:09:27;102167.91;;;-2.91;100.00
71476;BME280;59286;59.274;17.974;2024-03-08T05:11:54;102207.53;;;-2.63;100.00
71476;BME280;59286;59.274;17.974;2024-03-08T05:14:19;102191.72;;;-2.74;100.00
71476;BME280;59286;59.274;17.974;2024-03-08T05:16:46;102182.31;;;-2.82;100.00
71476;BME280;59286;59.274;17.974;2024-03-08T05:19:15;102167.56;;;-2.88;100.00
71476;BME280;59286;59.274;17.974;2024-03-08T05:21:43;102189.66;;;-2.79;100.00
71476;BME280;59286;59.274;17.974;2024-03-08T05:24:09;102185.97;;;-2.76;100.00
71476;BME280;59286;59.274;17.974;2024-03-08T05:26:35;102205.94;;;-2.64;100.00
71476;BME280;59286;59.274;17.974;2024-03-08T05:29:00;102208.97;;;-2.60;100.00
71476;BME280;59286;59.274;17.974;2024-03-08T05:31:26;102216.81;;;-2.54;100.00
71476;BME280;59286;59.274;17.974;2024-03-08T05:33:51;102168.03;;;-2.84;100.00
71476;BME280;59286;59.274;17.974;2024-03-08T05:36:19;102234.38;;;-2.43;100.00
71476;BME280;59286;59.274;17.974;2024-03-08T05:38:44;102199.03;;;-2.63;100.00
71476;BME280;59286;59.274;17.974;2024-03-08T05:41:10;102232.59;;;-2.42;100.00
71476;BME280;59286;59.274;17.974;2024-03-08T05:43:37;102194.22;;;-2.66;100.00
71476;BME280;59286;59.274;17.974;2024-03-08T05:46:02;102190.53;;;-2.64;100.00
71476;BME280;59286;59.274;17.974;2024-03-08T05:48:29;102221.94;;;-2.54;100.00
71476;BME280;59286;59.274;17.974;2024-03-08T05:50:57;102236.25;;;-2.37;100.00
71476;BME280;59286;59.274;17.974;2024-03-08T05:53:22;102177.44;;;-2.69;100.00
71476;BME280;59286;59.274;17.974;2024-03-08T05:55:48;102189.41;;;-2.61;100.00
71476;BME280;59286;59.274;17.974;2024-03-08T05:58:14;102182.34;;;-2.59;100.00
71476;BME280;59286;59.274;17.974;2024-03-08T06:00:40;102180.41;;;-2.57;100.00
71476;BME280;59286;59.274;17.974;2024-03-08T06:03:05;102182.34;;;-2.59;100.00
71476;BME280;59286;59.274;17.974;2024-03-08T06:05:30;102187.25;;;-2.50;100.00
71476;BME280;59286;59.274;17.974;2024-03-08T06:07:56;102220.50;;;-2.26;100.00
71476;BME280;59286;59.274;17.974;2024-03-08T06:10:22;102172.34;;;-2.46;100.00
71476;BME280;59286;59.274;17.974;2024-03-08T06:12:47;102202.53;;;-2.26;100.00
71476;BME280;59286;59.274;17.974;2024-03-08T06:15:12;102188.75;;;-2.33;100.00
71476;BME280;59286;59.274;17.974;2024-03-08T06:17:41;102178.81;;;-2.36;100.00
71476;BME280;59286;59.274;17.974;2024-03-08T06:20:07;102216.16;;;-2.03;100.00
71476;BME280;59286;59.274;17.974;2024-03-08T06:22:39;102195.38;;;-2.16;100.00
71476;BME280;59286;59.274;17.974;2024-03-08T06:25:07;102183.53;;;-2.17;100.00
71476;BME280;59286;59.274;17.974;2024-03-08T06:27:32;102191.78;;;-2.07;100.00
71476;BME280;59286;59.274;17.974;2024-03-08T06:29:59;102188.53;;;-2.01;100.00
71476;BME280;59286;59.274;17.974;2024-03-08T06:32:25;102177.63;;;-2.03;100.00
71476;BME280;59286;59.274;17.974;2024-03-08T06:34:50;102193.19;;;-1.81;100.00
71476;BME280;59286;59.274;17.974;2024-03-08T06:37:16;102204.47;;;-1.68;100.00
71476;BME280;59286;59.274;17.974;2024-03-08T06:39:47;102177.41;;;-1.78;100.00
71476;BME280;59286;59.274;17.974;2024-03-08T06:42:13;102209.66;;;-1.53;100.00
71476;BME280;59286;59.274;17.974;2024-03-08T06:44:38;102202.72;;;-1.53;100.00
71476;BME280;59286;59.274;17.974;2024-03-08T06:47:10;102233.00;;;-1.26;100.00
71476;BME280;59286;59.274;17.974;2024-03-08T06:49:36;102225.34;;;-1.19;100.00
71476;BME280;59286;59.274;17.974;2024-03-08T06:52:01;102238.41;;;-1.06;100.00
71476;BME280;59286;59.274;17.974;2024-03-08T06:54:26;102197.63;;;-1.24;100.00
71476;BME280;59286;59.274;17.974;2024-03-08T06:56:52;102216.06;;;-1.06;100.00
71476;BME280;59286;59.274;17.974;2024-03-08T06:59:17;102207.00;;;-0.87;100.00
71476;BME280;59286;59.274;17.974;2024-03-08T07:01:43;102191.78;;;-0.82;100.00
71476;BME280;59286;59.274;17.974;2024-03-08T07:04:08;102213.22;;;-0.46;100.00
71476;BME280;59286;59.274;17.974;2024-03-08T07:06:34;102206.72;;;-0.42;100.00
71476;BME280;59286;59.274;17.974;2024-03-08T07:08:59;102223.00;;;-0.20;100.00
71476;BME280;59286;59.274;17.974;2024-03-08T07:11:25;102206.91;;;-0.22;100.00
71476;BME280;59286;59.274;17.974;2024-03-08T07:13:50;102210.81;;;-0.12;100.00
71476;BME280;59286;59.274;17.974;2024-03-08T07:16:16;102208.56;;;0.07;100.00
71476;BME280;59286;59.274;17.974;2024-03-08T07:18:41;102211.06;;;0.21;100.00
71476;BME280;59286;59.274;17.974;2024-03-08T07:21:09;102208.69;;;0.20;100.00
71476;BME280;59286;59.274;17.974;2024-03-08T07:23:35;102199.00;;;0.22;100.00
71476;BME280;59286;59.274;17.974;2024-03-08T07:26:20;102177.75;;;0.20;100.00
71476;BME280;59286;59.274;17.974;2024-03-08T07:28:45;102204.47;;;0.40;100.00
71476;BME280;59286;59.274;17.974;2024-03-08T07:31:11;102179.81;;;0.31;100.00
71476;BME280;59286;59.274;17.974;2024-03-08T07:33:42;102219.53;;;0.64;100.00
71476;BME280;59286;59.274;17.974;2024-03-08T07:36:08;102192.78;;;0.71;100.00
71476;BME280;59286;59.274;17.974;2024-03-08T07:38:33;102176.88;;;0.68;100.00
71476;BME280;59286;59.274;17.974;2024-03-08T07:40:59;102223.94;;;1.04;100.00
71476;BME280;59286;59.274;17.974;2024-03-08T07:43:27;102187.34;;;0.94;100.00
71476;BME280;59286;59.274;17.974;2024-03-08T07:45:52;102212.06;;;1.10;100.00
71476;BME280;59286;59.274;17.974;2024-03-08T07:48:20;102184.22;;;1.05;100.00
71476;BME280;59286;59.274;17.974;2024-03-08T07:50:46;102177.88;;;1.14;100.00
71476;BME280;59286;59.274;17.974;2024-03-08T07:53:11;102144.25;;;0.94;100.00
71476;BME280;59286;59.274;17.974;2024-03-08T07:55:37;102197.88;;;1.40;100.00
71476;BME280;59286;59.274;17.974;2024-03-08T07:58:07;102185.16;;;1.51;100.00
71476;BME280;59286;59.274;17.974;2024-03-08T08:00:34;102187.56;;;1.59;100.00
71476;BME280;59286;59.274;17.974;2024-03-08T08:03:01;102188.38;;;1.66;99.57
71476;BME280;59286;59.274;17.974;2024-03-08T08:05:26;102212.66;;;1.78;100.00
71476;BME280;59286;59.274;17.974;2024-03-08T08:07:52;102207.50;;;1.78;100.00
71476;BME280;59286;59.274;17.974;2024-03-08T08:10:18;102161.31;;;1.62;100.00
71476;BME280;59286;59.274;17.974;2024-03-08T08:12:49;102229.78;;;2.19;100.00
71476;BME280;59286;59.274;17.974;2024-03-08T08:15:14;102179.06;;;1.91;99.18
71476;BME280;59286;59.274;17.974;2024-03-08T08:17:44;102193.22;;;2.09;99.57
71476;BME280;59286;59.274;17.974;2024-03-08T08:20:10;102218.25;;;2.21;99.00
71476;BME280;59286;59.274;17.974;2024-03-08T08:22:39;102222.25;;;2.24;100.00
71476;BME280;59286;59.274;17.974;2024-03-08T08:25:06;102155.41;;;2.14;100.00
71476;BME280;59286;59.274;17.974;2024-03-08T08:27:31;102175.88;;;2.35;97.40
71476;BME280;59286;59.274;17.974;2024-03-08T08:29:57;102152.59;;;2.29;97.37
71476;BME280;59286;59.274;17.974;2024-03-08T08:32:22;102229.78;;;2.58;97.53
71476;BME280;59286;59.274;17.974;2024-03-08T08:34:48;102151.63;;;2.23;98.85
71476;BME280;59286;59.274;17.974;2024-03-08T08:37:13;102191.56;;;2.47;97.35
71476;BME280;59286;59.274;17.974;2024-03-08T08:39:38;102186.41;;;2.47;96.96
71476;BME280;59286;59.274;17.974;2024-03-08T08:42:04;102155.16;;;2.48;97.81
71476;BME280;59286;59.274;17.974;2024-03-08T08:44:30;102187.53;;;2.77;95.05
71476;BME280;59286;59.274;17.974;2024-03-08T08:46:57;102193.09;;;2.87;96.46
71476;BME280;59286;59.274;17.974;2024-03-08T08:49:22;102196.66;;;2.86;95.90
71476;BME280;59286;59.274;17.974;2024-03-08T08:51:52;102177.94;;;2.90;95.20
71476;BME280;59286;59.274;17.974;2024-03-08T08:54:18;102235.59;;;3.24;95.74
71476;BME280;59286;59.274;17.974;2024-03-08T08:56:44;102209.81;;;2.84;94.52
71476;BME280;59286;59.274;17.974;2024-03-08T08:59:10;102161.72;;;2.51;94.98
71476;BME280;59286;59.274;17.974;2024-03-08T09:01:42;102200.03;;;2.93;95.22
71476;BME280;59286;59.274;17.974;2024-03-08T09:04:07;102199.34;;;3.17;95.29
71476;BME280;59286;59.274;17.974;2024-03-08T09:06:33;102206.34;;;3.10;95.36
71476;BME280;59286;59.274;17.974;2024-03-08T09:08:59;102168.22;;;2.79;94.38
71476;BME280;59286;59.274;17.974;2024-03-08T09:11:24;102165.81;;;2.78;94.14
71476;BME280;59286;59.274;17.974;2024-03-08T09:13:52;102189.72;;;2.86;94.60
71476;BME280;59286;59.274;17.974;2024-03-08T09:16:18;102151.91;;;2.72;94.73
71476;BME280;59286;59.274;17.974;2024-03-08T09:18:43;102183.03;;;3.10;94.09
71476;BME280;59286;59.274;17.974;2024-03-08T09:21:09;102149.63;;;3.02;93.39
71476;BME280;59286;59.274;17.974;2024-03-08T09:23:35;102153.13;;;3.21;92.35
71476;BME280;59286;59.274;17.974;2024-03-08T09:26:01;102191.06;;;3.40;92.00
71476;BME280;59286;59.274;17.974;2024-03-08T09:28:28;102166.31;;;3.06;92.27
71476;BME280;59286;59.274;17.974;2024-03-08T09:30:53;102164.53;;;3.07;94.16
71476;BME280;59286;59.274;17.974;2024-03-08T09:33:20;102147.19;;;3.07;92.82
71476;BME280;59286;59.274;17.974;2024-03-08T09:35:46;102139.09;;;3.28;93.36
71476;BME280;59286;59.274;17.974;2024-03-08T09:38:12;102194.06;;;3.74;90.98
71476;BME280;59286;59.274;17.974;2024-03-08T09:40:40;102138.13;;;3.29;89.50
71476;BME280;59286;59.274;17.974;2024-03-08T09:43:06;102144.28;;;3.28;90.14
71476;BME280;59286;59.274;17.974;2024-03-08T09:45:35;102135.09;;;3.32;89.40
71476;BME280;59286;59.274;17.974;2024-03-08T09:48:01;102165.44;;;3.56;89.75
71476;BME280;59286;59.274;17.974;2024-03-08T09:50:26;102116.00;;;3.27;88.43
71476;BME280;59286;59.274;17.974;2024-03-08T09:52:55;102194.66;;;3.76;89.79
71476;BME280;59286;59.274;17.974;2024-03-08T09:55:22;102126.66;;;3.43;89.08
71476;BME280;59286;59.274;17.974;2024-03-08T09:57:51;102144.53;;;3.58;88.02
71476;BME280;59286;59.274;17.974;2024-03-08T10:00:35;102132.06;;;3.73;87.61
71476;BME280;59286;59.274;17.974;2024-03-08T10:03:01;102125.97;;;3.54;87.77
71476;BME280;59286;59.274;17.974;2024-03-08T10:05:29;102125.97;;;3.54;87.78
71476;BME280;59286;59.274;17.974;2024-03-08T10:07:58;102141.94;;;3.82;87.15
71476;BME280;59286;59.274;17.974;2024-03-08T10:10:23;102148.63;;;3.97;85.97
71476;BME280;59286;59.274;17.974;2024-03-08T10:12:52;102178.94;;;4.21;86.13
71476;BME280;59286;59.274;17.974;2024-03-08T10:15:17;102192.25;;;4.06;85.10
71476;BME280;59286;59.274;17.974;2024-03-08T10:17:43;102136.00;;;3.75;85.16
71476;BME280;59286;59.274;17.974;2024-03-08T10:20:18;102139.44;;;3.94;86.07
71476;BME280;59286;59.274;17.974;2024-03-08T10:22:44;102116.53;;;3.91;83.75
71476;BME280;59286;59.274;17.974;2024-03-08T10:25:11;102139.78;;;4.04;82.91
71476;BME280;59286;59.274;17.974;2024-03-08T10:27:38;102119.25;;;4.03;83.87
71476;BME280;59286;59.274;17.974;2024-03-08T10:30:14;102144.78;;;4.24;82.58
71476;BME280;59286;59.274;17.974;2024-03-08T10:32:41;102132.59;;;4.06;82.00
71476;BME280;59286;59.274;17.974;2024-03-08T10:35:07;102151.78;;;4.23;81.39
71476;BME280;59286;59.274;17.974;2024-03-08T10:37:38;102134.69;;;4.16;80.62
71476;BME280;59286;59.274;17.974;2024-03-08T10:40:10;102148.25;;;4.18;80.33
71476;BME280;59286;59.274;17.974;2024-03-08T10:42:47;102148.53;;;4.28;80.13
71476;BME280;59286;59.274;17.974;2024-03-08T10:45:19;102184.94;;;4.64;81.34
71476;BME280;59286;59.274;17.974;2024-03-08T10:47:49;102141.06;;;4.38;80.15
71476;BME280;59286;59.274;17.974;2024-03-08T10:50:19;102138.28;;;4.33;80.41
71476;BME280;59286;59.274;17.974;2024-03-08T10:52:51;102156.06;;;4.54;80.21
71476;BME280;59286;59.274;17.974;2024-03-08T10:55:19;102119.94;;;4.34;79.20
71476;BME280;59286;59.274;17.974;2024-03-08T10:57:46;102168.06;;;4.55;81.71
71476;BME280;59286;59.274;17.974;2024-03-08T11:00:13;102148.06;;;4.55;80.01
71476;BME280;59286;59.274;17.974;2024-03-08T11:02:39;102120.00;;;4.28;78.33
71476;BME280;59286;59.274;17.974;2024-03-08T11:05:31;102133.28;;;4.38;78.86
71476;BME280;59286;59.274;17.974;2024-03-08T11:08:01;102159.03;;;4.57;79.04
71476;BME280;59286;59.274;17.974;2024-03-08T11:10:26;102161.13;;;4.67;78.70
71476;BME280;59286;59.274;17.974;2024-03-08T11:12:51;102097.66;;;4.27;79.00
71476;BME280;59286;59.274;17.974;2024-03-08T11:15:17;102109.84;;;4.44;78.32
71476;BME280;59286;59.274;17.974;2024-03-08T11:17:48;102156.50;;;4.69;79.09
71476;BME280;59286;59.274;17.974;2024-03-08T11:20:18;102129.66;;;4.57;77.61
71476;BME280;59286;59.274;17.974;2024-03-08T11:23:00;102127.78;;;4.46;77.25
71476;BME280;59286;59.274;17.974;2024-03-08T11:25:33;102112.78;;;4.48;78.63
71476;BME280;59286;59.274;17.974;2024-03-08T11:28:21;102143.75;;;4.67;77.61
71476;BME280;59286;59.274;17.974;2024-03-08T11:33:29;102178.34;;;4.79;77.47
71476;BME280;59286;59.274;17.974;2024-03-08T11:38:40;102147.84;;;4.75;77.46
71476;BME280;59286;59.274;17.974;2024-03-08T11:41:07;102136.88;;;4.73;76.92
71476;BME280;59286;59.274;17.974;2024-03-08T11:43:33;102169.63;;;4.92;77.66
71476;BME280;59286;59.274;17.974;2024-03-08T11:46:12;102131.03;;;4.59;76.61
71476;BME280;59286;59.274;17.974;2024-03-08T11:48:39;102146.53;;;4.84;75.88
71476;BME280;59286;59.274;17.974;2024-03-08T11:51:07;102151.00;;;4.95;75.79
71476;BME280;59286;59.274;17.974;2024-03-08T11:53:32;102156.84;;;4.90;75.58
71476;BME280;59286;59.274;17.974;2024-03-08T11:56:08;102129.50;;;4.70;76.44
71476;BME280;59286;59.274;17.974;2024-03-08T11:58:34;102089.06;;;4.44;77.38
71476;BME280;59286;59.274;17.974;2024-03-08T12:01:09;102092.69;;;4.43;77.07
71476;BME280;59286;59.274;17.974;2024-03-08T12:03:41;102090.16;;;4.55;76.38
71476;BME280;59286;59.274;17.974;2024-03-08T12:06:10;102107.28;;;4.74;76.36
71476;BME280;59286;59.274;17.974;2024-03-08T12:08:36;102101.53;;;4.72;76.16
71476;BME280;59286;59.274;17.974;2024-03-08T12:11:03;102157.72;;;5.03;76.13
71476;BME280;59286;59.274;17.974;2024-03-08T12:13:31;102081.78;;;4.53;75.86
71476;BME280;59286;59.274;17.974;2024-03-08T12:16:05;102090.88;;;4.62;76.62
71476;BME280;59286;59.274;17.974;2024-03-08T12:18:35;102075.44;;;4.49;76.15
71476;BME280;59286;59.274;17.974;2024-03-08T12:21:07;102086.09;;;4.59;75.94
71476;BME280;59286;59.274;17.974;2024-03-08T12:23:37;102150.03;;;5.08;76.26
71476;BME280;59286;59.274;17.974;2024-03-08T12:26:15;102098.72;;;4.73;73.92
71476;BME280;59286;59.274;17.974;2024-03-08T12:28:43;102106.13;;;4.88;74.22
71476;BME280;59286;59.274;17.974;2024-03-08T12:31:11;102112.72;;;5.02;73.98
71476;BME280;59286;59.274;17.974;2024-03-08T12:33:53;102098.00;;;4.96;73.78
71476;BME280;59286;59.274;17.974;2024-03-08T12:36:20;102141.38;;;5.14;73.78
71476;BME280;59286;59.274;17.974;2024-03-08T12:38:46;102110.47;;;4.94;74.28
71476;BME280;59286;59.274;17.974;2024-03-08T12:41:15;102118.81;;;4.96;74.38
71476;BME280;59286;59.274;17.974;2024-03-08T12:43:43;102119.81;;;4.95;74.73